createdAt,value
2017-06-13T00:00:32.793Z,0
2017-06-13T00:01:42.448Z,0
2017-06-13T00:02:52.731Z,0
2017-06-13T00:04:03.057Z,0
2017-06-13T00:05:13.343Z,0
2017-06-13T00:06:23.626Z,0
2017-06-13T00:07:33.587Z,0
2017-06-13T00:08:43.876Z,0
2017-06-13T00:09:53.845Z,0
2017-06-13T00:11:04.132Z,0
2017-06-13T00:12:14.407Z,0
2017-06-13T00:13:24.691Z,0
2017-06-13T00:14:34.696Z,0
2017-06-13T00:15:44.979Z,0
2017-06-13T00:16:54.947Z,0
2017-06-13T00:18:05.218Z,0
2017-06-13T00:19:15.496Z,0
2017-06-13T00:20:25.784Z,0
2017-06-13T00:21:36.058Z,0
2017-06-13T00:22:46.032Z,0
2017-06-13T00:23:56.316Z,0
2017-06-13T00:25:06.599Z,0
2017-06-13T00:26:16.877Z,0
2017-06-13T00:27:26.838Z,0
2017-06-13T00:28:36.801Z,0
2017-06-13T00:29:47.079Z,0
2017-06-13T00:30:57.352Z,0
2017-06-13T00:32:07.630Z,0
2017-06-13T00:33:17.613Z,0
2017-06-13T00:34:27.574Z,0
2017-06-13T00:35:37.850Z,0
2017-06-13T00:36:48.141Z,0
2017-06-13T00:37:58.416Z,0
2017-06-13T00:39:08.697Z,0
2017-06-13T00:40:18.966Z,0
2017-06-13T00:41:29.236Z,0
2017-06-13T00:42:38.886Z,0
2017-06-13T00:43:49.169Z,0
2017-06-13T00:44:59.452Z,0
2017-06-13T00:46:09.425Z,0
2017-06-13T00:47:19.704Z,0
2017-06-13T00:48:29.989Z,0
2017-06-13T00:49:40.266Z,0
2017-06-13T00:50:50.538Z,0
2017-06-13T00:52:00.830Z,0
2017-06-13T00:53:11.108Z,0
2017-06-13T00:54:21.069Z,0
2017-06-13T00:55:31.040Z,0
2017-06-13T00:56:41.316Z,0
2017-06-13T00:57:51.590Z,0
2017-06-13T00:59:01.864Z,0
2017-06-13T01:00:12.133Z,0
2017-06-13T01:01:22.414Z,0
2017-06-13T01:02:32.711Z,0
2017-06-13T01:03:42.990Z,0
2017-06-13T01:04:53.276Z,0
2017-06-13T01:06:03.244Z,0
2017-06-13T01:07:13.217Z,0
2017-06-13T01:08:23.500Z,0
2017-06-13T01:09:33.779Z,0
2017-06-13T01:10:43.741Z,0
2017-06-13T01:11:53.707Z,0
2017-06-13T01:13:03.675Z,0
2017-06-13T01:14:13.955Z,0
2017-06-13T01:15:24.224Z,0
2017-06-13T01:16:34.193Z,0
2017-06-13T01:17:44.154Z,0
2017-06-13T01:18:54.124Z,0
2017-06-13T01:20:04.102Z,0
2017-06-13T01:21:14.375Z,0
2017-06-13T01:22:24.650Z,0
2017-06-13T01:23:34.309Z,0
2017-06-13T01:24:43.666Z,0
2017-06-13T01:25:53.940Z,0
2017-06-13T01:27:03.916Z,0
2017-06-13T01:28:14.191Z,0
2017-06-13T01:29:24.741Z,0
2017-06-13T01:30:34.716Z,0
2017-06-13T01:31:44.988Z,0
2017-06-13T01:32:55.272Z,0
2017-06-13T01:34:05.541Z,0
2017-06-13T01:35:15.504Z,0
2017-06-13T01:36:25.783Z,0
2017-06-13T01:37:35.750Z,0
2017-06-13T01:38:46.039Z,0
2017-06-13T01:39:56.325Z,0
2017-06-13T01:41:06.606Z,0
2017-06-13T01:42:16.889Z,0
2017-06-13T01:43:27.161Z,0
2017-06-13T01:44:37.138Z,0
2017-06-13T01:45:47.427Z,0
2017-06-13T01:46:57.700Z,0
2017-06-13T01:48:07.981Z,0
2017-06-13T01:49:18.264Z,0
2017-06-13T01:50:28.251Z,0
2017-06-13T01:51:38.538Z,0
2017-06-13T01:52:48.503Z,0
2017-06-13T01:53:58.465Z,0
2017-06-13T01:55:08.432Z,0
2017-06-13T01:56:18.704Z,0
2017-06-13T01:57:28.976Z,0
2017-06-13T01:58:38.631Z,0
2017-06-13T01:59:48.603Z,0
2017-06-13T02:00:58.877Z,0
2017-06-13T02:02:08.840Z,0
2017-06-13T02:03:19.117Z,0
2017-06-13T02:04:29.390Z,0
2017-06-13T02:05:39.707Z,0
2017-06-13T02:06:49.672Z,0
2017-06-13T02:07:59.945Z,0
2017-06-13T02:09:10.215Z,0
2017-06-13T02:10:20.496Z,0
2017-06-13T02:11:30.775Z,0
2017-06-13T02:12:41.047Z,0
2017-06-13T02:13:51.324Z,0
2017-06-13T02:15:01.285Z,0
2017-06-13T02:16:11.586Z,0
2017-06-13T02:17:21.853Z,0
2017-06-13T02:18:32.125Z,0
2017-06-13T02:19:42.409Z,0
2017-06-13T02:20:52.693Z,0
2017-06-13T02:22:02.968Z,0
2017-06-13T02:23:12.944Z,0
2017-06-13T02:24:22.911Z,0
2017-06-13T02:25:32.591Z,0
2017-06-13T02:26:42.258Z,0
2017-06-13T02:27:51.917Z,0
2017-06-13T02:29:02.196Z,0
2017-06-13T02:30:12.468Z,0
2017-06-13T02:31:22.437Z,0
2017-06-13T02:32:32.732Z,0
2017-06-13T02:33:42.390Z,0
2017-06-13T02:34:52.666Z,0
2017-06-13T02:36:02.329Z,0
2017-06-13T02:37:12.615Z,0
2017-06-13T02:38:22.572Z,0
2017-06-13T02:39:32.869Z,4
2017-06-13T02:40:43.393Z,4
2017-06-13T02:41:53.361Z,4
2017-06-13T02:43:03.319Z,0
2017-06-13T02:44:13.604Z,0
2017-06-13T02:45:23.885Z,0
2017-06-13T02:46:34.158Z,0
2017-06-13T02:47:44.450Z,4
2017-06-13T02:48:54.734Z,4
2017-06-13T02:50:05.009Z,0
2017-06-13T02:51:15.284Z,4
2017-06-13T02:52:25.273Z,4
2017-06-13T02:53:35.243Z,4
2017-06-13T02:54:45.520Z,4
2017-06-13T02:55:55.793Z,4
2017-06-13T02:57:06.067Z,4
2017-06-13T02:58:16.354Z,8
2017-06-13T02:59:26.631Z,8
2017-06-13T03:00:36.914Z,12
2017-06-13T03:01:46.884Z,16
2017-06-13T03:02:57.158Z,24
2017-06-13T03:04:07.434Z,28
2017-06-13T03:05:17.707Z,28
2017-06-13T03:06:27.989Z,40
2017-06-13T03:07:38.265Z,44
2017-06-13T03:08:48.545Z,52
2017-06-13T03:09:58.510Z,60
2017-06-13T03:11:08.791Z,64
2017-06-13T03:12:19.062Z,68
2017-06-13T03:13:29.030Z,76
2017-06-13T03:14:39.304Z,80
2017-06-13T03:15:48.969Z,88
2017-06-13T03:16:59.248Z,96
2017-06-13T03:18:09.532Z,96
2017-06-13T03:19:19.809Z,108
2017-06-13T03:20:29.776Z,108
2017-06-13T03:21:40.056Z,64
2017-06-13T03:22:50.335Z,124
2017-06-13T03:24:00.302Z,112
2017-06-13T03:25:10.576Z,112
2017-06-13T03:26:20.546Z,136
2017-06-13T03:27:30.515Z,148
2017-06-13T03:28:40.787Z,148
2017-06-13T03:29:51.079Z,152
2017-06-13T03:31:01.353Z,156
2017-06-13T03:32:11.026Z,172
2017-06-13T03:33:21.300Z,192
2017-06-13T03:34:31.577Z,184
2017-06-13T03:35:41.855Z,184
2017-06-13T03:36:52.136Z,180
2017-06-13T03:38:02.412Z,168
2017-06-13T03:39:12.692Z,152
2017-06-13T03:40:22.970Z,104
2017-06-13T03:41:32.631Z,60
2017-06-13T03:42:42.915Z,36
2017-06-13T03:43:52.877Z,32
2017-06-13T03:45:03.165Z,28
2017-06-13T03:46:13.136Z,32
2017-06-13T03:47:23.413Z,84
2017-06-13T03:48:33.680Z,128
2017-06-13T03:49:44.109Z,200
2017-06-13T03:50:54.390Z,176
2017-06-13T03:52:04.670Z,188
2017-06-13T03:53:14.941Z,152
2017-06-13T03:54:25.222Z,76
2017-06-13T03:55:35.498Z,132
2017-06-13T03:56:45.768Z,100
2017-06-13T03:57:56.043Z,108
2017-06-13T03:59:06.329Z,144
2017-06-13T04:00:16.637Z,160
2017-06-13T04:01:26.925Z,168
2017-06-13T04:02:37.199Z,176
2017-06-13T04:03:47.481Z,188
2017-06-13T04:04:57.757Z,2492
2017-06-13T04:06:08.061Z,3816
2017-06-13T04:07:18.337Z,3724
2017-06-13T04:08:28.306Z,3944
2017-06-13T04:09:38.580Z,4084
2017-06-13T04:10:48.853Z,4048
2017-06-13T04:11:59.145Z,3892
2017-06-13T04:13:09.426Z,3916
2017-06-13T04:14:19.400Z,4092
2017-06-13T04:15:29.674Z,3220
2017-06-13T04:16:39.646Z,3060
2017-06-13T04:17:49.919Z,2972
2017-06-13T04:18:59.576Z,3088
2017-06-13T04:20:09.858Z,4124
2017-06-13T04:21:20.139Z,4396
2017-06-13T04:22:30.422Z,4460
2017-06-13T04:23:40.705Z,4212
2017-06-13T04:24:51.332Z,4664
2017-06-13T04:26:01.632Z,4692
2017-06-13T04:27:11.624Z,4784
2017-06-13T04:28:21.598Z,4836
2017-06-13T04:29:31.880Z,4832
2017-06-13T04:30:42.159Z,4892
2017-06-13T04:31:52.133Z,4960
2017-06-13T04:33:02.412Z,4928
2017-06-13T04:34:12.081Z,4924
2017-06-13T04:35:22.053Z,5052
2017-06-13T04:36:32.338Z,5000
2017-06-13T04:37:42.304Z,5100
2017-06-13T04:38:52.285Z,5164
2017-06-13T04:40:02.589Z,5132
2017-06-13T04:41:12.887Z,5068
2017-06-13T04:42:22.864Z,5168
2017-06-13T04:43:33.142Z,5152
2017-06-13T04:44:43.420Z,5024
2017-06-13T04:45:53.383Z,5320
2017-06-13T04:47:03.669Z,5340
2017-06-13T04:48:13.949Z,5344
2017-06-13T04:49:24.240Z,5356
2017-06-13T04:50:34.515Z,5360
2017-06-13T04:51:44.488Z,5400
2017-06-13T04:52:54.783Z,5440
2017-06-13T04:54:04.466Z,5460
2017-06-13T04:55:14.756Z,5500
2017-06-13T04:56:25.042Z,5376
2017-06-13T04:57:34.703Z,5240
2017-06-13T04:58:44.680Z,5468
2017-06-13T04:59:54.954Z,5548
2017-06-13T05:01:05.228Z,5460
2017-06-13T05:02:15.515Z,3444
2017-06-13T05:03:25.806Z,2576
2017-06-13T05:04:36.091Z,3024
2017-06-13T05:05:46.065Z,3020
2017-06-13T05:06:55.732Z,3544
2017-06-13T05:08:06.018Z,3052
2017-06-13T05:09:16.304Z,2700
2017-06-13T05:10:26.591Z,2708
2017-06-13T05:11:36.872Z,2808
2017-06-13T05:12:47.362Z,2908
2017-06-13T05:13:57.653Z,2920
2017-06-13T05:15:07.938Z,4212
2017-06-13T05:16:18.235Z,2868
2017-06-13T05:17:28.522Z,2604
2017-06-13T05:18:39.171Z,2636
2017-06-13T05:19:49.467Z,2816
2017-06-13T05:20:59.467Z,2868
2017-06-13T05:22:09.450Z,2936
2017-06-13T05:23:19.726Z,2876
2017-06-13T05:24:30.020Z,2956
2017-06-13T05:25:40.006Z,3228
2017-06-13T05:26:50.096Z,3796
2017-06-13T05:28:00.150Z,4276
2017-06-13T05:29:10.439Z,5480
2017-06-13T05:30:20.739Z,2656
2017-06-13T05:31:31.020Z,2232
2017-06-13T05:32:41.328Z,1996
2017-06-13T05:33:51.609Z,2032
2017-06-13T05:35:01.942Z,2828
2017-06-13T05:36:11.953Z,2448
2017-06-13T05:37:22.298Z,2524
2017-06-13T05:38:32.587Z,3552
2017-06-13T05:39:42.581Z,3196
2017-06-13T05:40:52.569Z,2760
2017-06-13T05:42:02.848Z,2812
2017-06-13T05:43:13.132Z,2472
2017-06-13T05:44:23.107Z,2660
2017-06-13T05:45:33.423Z,2636
2017-06-13T05:46:43.709Z,1932
2017-06-13T05:47:53.993Z,2200
2017-06-13T05:49:04.271Z,2660
2017-06-13T05:50:14.402Z,2776
2017-06-13T05:51:24.681Z,3232
2017-06-13T05:52:35.024Z,2920
2017-06-13T05:53:44.999Z,3212
2017-06-13T05:54:54.985Z,2704
2017-06-13T05:56:05.270Z,2768
2017-06-13T05:57:15.558Z,3036
2017-06-13T05:58:25.889Z,2584
2017-06-13T05:59:36.177Z,2864
2017-06-13T06:00:46.160Z,2516
2017-06-13T06:01:56.442Z,2712
2017-06-13T06:03:06.757Z,3412
2017-06-13T06:04:16.747Z,3640
2017-06-13T06:05:27.035Z,2856
2017-06-13T06:06:37.026Z,2664
2017-06-13T06:07:46.687Z,2888
2017-06-13T06:08:56.684Z,2832
2017-06-13T06:10:06.976Z,3268
2017-06-13T06:11:16.983Z,4048
2017-06-13T06:12:27.319Z,3872
2017-06-13T06:13:37.339Z,4388
2017-06-13T06:14:47.622Z,2928
2017-06-13T06:15:57.912Z,2480
2017-06-13T06:17:08.210Z,3100
2017-06-13T06:18:18.196Z,2780
2017-06-13T06:19:28.499Z,2208
2017-06-13T06:20:38.190Z,1916
2017-06-13T06:21:48.502Z,1668
2017-06-13T06:22:58.496Z,2368
2017-06-13T06:24:08.788Z,2792
2017-06-13T06:25:19.090Z,2444
2017-06-13T06:26:29.387Z,1604
2017-06-13T06:27:39.367Z,1880
2017-06-13T06:28:49.660Z,2768
2017-06-13T06:29:59.670Z,3020
2017-06-13T06:31:09.952Z,2708
2017-06-13T06:32:20.256Z,2664
2017-06-13T06:33:30.240Z,2988
2017-06-13T06:34:40.556Z,2780
2017-06-13T06:35:50.855Z,2240
2017-06-13T06:37:00.843Z,2192
2017-06-13T06:38:11.156Z,3132
2017-06-13T06:39:21.452Z,3460
2017-06-13T06:40:31.748Z,3228
2017-06-13T06:41:42.085Z,3144
2017-06-13T06:42:52.375Z,2564
2017-06-13T06:44:02.363Z,3488
2017-06-13T06:45:12.346Z,3568
2017-06-13T06:46:22.652Z,3964
2017-06-13T06:47:32.964Z,4120
2017-06-13T06:48:43.262Z,4212
2017-06-13T06:49:53.258Z,4328
2017-06-13T06:51:03.550Z,4420
2017-06-13T06:52:13.535Z,4372
2017-06-13T06:53:23.830Z,4180
2017-06-13T06:54:34.133Z,3780
2017-06-13T06:55:43.836Z,3472
2017-06-13T06:56:53.827Z,4132
2017-06-13T06:58:04.157Z,3888
2017-06-13T06:59:13.825Z,3772
2017-06-13T07:00:23.495Z,2988
2017-06-13T07:01:33.794Z,2256
2017-06-13T07:02:44.093Z,2176
2017-06-13T07:03:54.393Z,2388
2017-06-13T07:05:04.683Z,2752
2017-06-13T07:06:14.682Z,3336
2017-06-13T07:07:24.986Z,3292
2017-06-13T07:08:35.284Z,3788
2017-06-13T07:09:45.596Z,3952
2017-06-13T07:10:55.957Z,3488
2017-06-13T07:12:06.273Z,3652
2017-06-13T07:13:16.581Z,3372
2017-06-13T07:14:26.879Z,1996
2017-06-13T07:15:36.867Z,3264
2017-06-13T07:16:47.173Z,3772
2017-06-13T07:17:57.157Z,3336
2017-06-13T07:19:07.679Z,2700
2017-06-13T07:20:17.687Z,2460
2017-06-13T07:21:27.682Z,2572
2017-06-13T07:22:37.978Z,3116
2017-06-13T07:23:48.272Z,3704
2017-06-13T07:24:58.624Z,4252
2017-06-13T07:26:08.915Z,3728
2017-06-13T07:27:18.912Z,3032
2017-06-13T07:28:29.204Z,3368
2017-06-13T07:29:39.196Z,2908
2017-06-13T07:30:49.498Z,2900
2017-06-13T07:31:59.809Z,2724
2017-06-13T07:33:10.116Z,3076
2017-06-13T07:34:20.407Z,4556
2017-06-13T07:35:30.385Z,4604
2017-06-13T07:36:40.060Z,5156
2017-06-13T07:37:50.047Z,4384
2017-06-13T07:39:00.031Z,3724
2017-06-13T07:40:10.329Z,3952
2017-06-13T07:41:20.632Z,3452
2017-06-13T07:42:30.612Z,3776
2017-06-13T07:43:40.902Z,2420
2017-06-13T07:44:51.204Z,3072
2017-06-13T07:46:01.218Z,3652
2017-06-13T07:47:11.510Z,1832
2017-06-13T07:48:21.802Z,1504
2017-06-13T07:49:32.117Z,968
2017-06-13T07:50:42.412Z,872
2017-06-13T07:51:52.699Z,796
2017-06-13T07:53:02.668Z,756
2017-06-13T07:54:12.941Z,632
2017-06-13T07:55:22.919Z,568
2017-06-13T07:56:33.237Z,612
2017-06-13T07:57:43.523Z,632
2017-06-13T07:58:53.513Z,884
2017-06-13T08:00:03.488Z,1652
2017-06-13T08:01:13.789Z,2492
2017-06-13T08:02:23.761Z,3260
2017-06-13T08:03:33.739Z,4140
2017-06-13T08:04:44.029Z,3420
2017-06-13T08:05:54.326Z,2884
2017-06-13T08:07:04.321Z,2840
2017-06-13T08:08:14.285Z,3224
2017-06-13T08:09:24.566Z,4292
2017-06-13T08:10:34.559Z,4644
2017-06-13T08:11:44.864Z,3436
2017-06-13T08:12:55.190Z,3132
2017-06-13T08:14:05.163Z,2940
2017-06-13T08:15:15.456Z,2356
2017-06-13T08:16:25.433Z,2148
2017-06-13T08:17:35.410Z,2760
2017-06-13T08:18:45.705Z,3800
2017-06-13T08:19:55.682Z,4016
2017-06-13T08:21:05.970Z,4516
2017-06-13T08:22:15.945Z,5216
2017-06-13T08:23:26.229Z,4800
2017-06-13T08:24:36.526Z,4472
2017-06-13T08:25:46.822Z,4200
2017-06-13T08:26:56.810Z,4264
2017-06-13T08:28:07.110Z,4412
2017-06-13T08:29:17.413Z,4596
2017-06-13T08:30:27.696Z,4056
2017-06-13T08:31:37.383Z,2724
2017-06-13T08:32:47.691Z,2384
2017-06-13T08:33:57.988Z,3376
2017-06-13T08:35:07.950Z,4000
2017-06-13T08:36:17.924Z,3520
2017-06-13T08:37:28.223Z,3476
2017-06-13T08:38:38.497Z,4076
2017-06-13T08:39:48.783Z,4528
2017-06-13T08:40:59.090Z,4316
2017-06-13T08:42:09.386Z,3884
2017-06-13T08:43:19.667Z,3672
2017-06-13T08:44:29.641Z,3552
2017-06-13T08:45:39.627Z,3564
2017-06-13T08:46:49.920Z,3420
2017-06-13T08:48:00.208Z,2980
2017-06-13T08:49:10.499Z,3144
2017-06-13T08:50:20.480Z,3264
2017-06-13T08:51:30.452Z,3172
2017-06-13T08:52:40.751Z,3000
2017-06-13T08:53:50.722Z,3236
2017-06-13T08:55:00.697Z,3492
2017-06-13T08:56:10.690Z,3380
2017-06-13T08:57:20.658Z,3084
2017-06-13T08:58:30.948Z,3040
2017-06-13T08:59:40.911Z,2440
2017-06-13T09:00:51.201Z,2356
2017-06-13T09:02:01.505Z,2392
2017-06-13T09:03:11.840Z,2440
2017-06-13T09:04:22.122Z,2464
2017-06-13T09:05:32.090Z,2256
2017-06-13T09:06:41.743Z,2124
2017-06-13T09:07:51.725Z,1956
2017-06-13T09:09:02.006Z,2048
2017-06-13T09:10:12.296Z,2360
2017-06-13T09:11:22.293Z,2536
2017-06-13T09:12:32.288Z,2588
2017-06-13T09:13:42.276Z,2908
2017-06-13T09:14:52.564Z,3756
2017-06-13T09:16:02.853Z,4216
2017-06-13T09:17:12.753Z,3480
2017-06-13T09:18:22.436Z,2364
2017-06-13T09:19:32.430Z,1944
2017-06-13T09:20:42.729Z,1740
2017-06-13T09:21:52.737Z,1376
2017-06-13T09:23:02.709Z,1476
2017-06-13T09:24:12.992Z,1904
2017-06-13T09:25:23.290Z,2348
2017-06-13T09:26:33.323Z,2752
2017-06-13T09:27:43.618Z,3404
2017-06-13T09:28:53.925Z,4144
2017-06-13T09:30:04.226Z,4884
2017-06-13T09:31:14.201Z,5440
2017-06-13T09:32:24.502Z,5800
2017-06-13T09:33:34.791Z,6052
2017-06-13T09:34:44.768Z,5676
2017-06-13T09:35:55.057Z,5144
2017-06-13T09:37:04.735Z,4964
2017-06-13T09:38:15.045Z,5492
2017-06-13T09:39:25.020Z,5872
2017-06-13T09:40:34.694Z,6068
2017-06-13T09:41:44.358Z,6156
2017-06-13T09:42:54.338Z,5724
2017-06-13T09:44:04.327Z,5904
2017-06-13T09:45:14.604Z,6056
2017-06-13T09:46:24.587Z,5872
2017-06-13T09:47:34.874Z,5976
2017-06-13T09:48:44.533Z,6012
2017-06-13T09:49:54.815Z,5388
2017-06-13T09:51:05.109Z,5248
2017-06-13T09:52:15.394Z,5356
2017-06-13T09:53:25.704Z,5216
2017-06-13T09:54:35.378Z,5068
2017-06-13T09:55:45.681Z,5116
2017-06-13T09:56:55.969Z,4252
2017-06-13T09:58:06.270Z,3860
2017-06-13T09:59:16.242Z,3956
2017-06-13T10:00:26.227Z,4644
2017-06-13T10:01:36.199Z,4612
2017-06-13T10:02:46.492Z,3476
2017-06-13T10:03:56.770Z,2296
2017-06-13T10:05:06.477Z,1928
2017-06-13T10:06:16.772Z,1808
2017-06-13T10:07:27.054Z,1516
2017-06-13T10:08:37.031Z,1544
2017-06-13T10:09:47.320Z,1572
2017-06-13T10:10:57.623Z,1788
2017-06-13T10:12:07.587Z,1984
2017-06-13T10:13:17.880Z,2656
2017-06-13T10:14:28.181Z,3372
2017-06-13T10:15:38.470Z,3520
2017-06-13T10:16:48.440Z,3300
2017-06-13T10:17:58.409Z,3764
2017-06-13T10:19:08.705Z,4032
2017-06-13T10:20:18.711Z,3972
2017-06-13T10:21:29.039Z,3936
2017-06-13T10:22:39.007Z,3144
2017-06-13T10:23:49.307Z,3060
2017-06-13T10:24:59.595Z,3416
2017-06-13T10:26:09.875Z,4008
2017-06-13T10:27:19.844Z,3716
2017-06-13T10:28:30.153Z,3636
2017-06-13T10:29:40.424Z,3208
2017-06-13T10:30:50.409Z,2964
2017-06-13T10:32:00.698Z,2972
2017-06-13T10:33:10.987Z,2628
2017-06-13T10:34:21.276Z,2420
2017-06-13T10:35:31.609Z,1928
2017-06-13T10:36:41.592Z,1372
2017-06-13T10:37:51.894Z,904
2017-06-13T10:39:01.892Z,808
2017-06-13T10:40:11.870Z,920
2017-06-13T10:41:22.181Z,1468
2017-06-13T10:42:32.466Z,1724
2017-06-13T10:43:42.129Z,1788
2017-06-13T10:44:52.426Z,3008
2017-06-13T10:46:02.400Z,4260
2017-06-13T10:47:12.386Z,4684
2017-06-13T10:48:22.674Z,4888
2017-06-13T10:49:32.982Z,4640
2017-06-13T10:50:43.293Z,4268
2017-06-13T10:51:53.485Z,3840
2017-06-13T10:53:03.472Z,3260
2017-06-13T10:54:13.752Z,2812
2017-06-13T10:55:23.751Z,2568
2017-06-13T10:56:33.425Z,2668
2017-06-13T10:57:43.408Z,3056
2017-06-13T10:58:53.697Z,3568
2017-06-13T11:00:03.996Z,3184
2017-06-13T11:01:14.287Z,2916
2017-06-13T11:02:24.800Z,2656
2017-06-13T11:03:35.110Z,2284
2017-06-13T11:04:45.392Z,1736
2017-06-13T11:06:00.306Z,1080
2017-06-13T11:07:10.294Z,900
2017-06-13T11:08:20.595Z,1416
2017-06-13T11:09:30.896Z,2812
2017-06-13T11:10:41.208Z,3708
2017-06-13T11:11:51.495Z,3512
2017-06-13T11:13:01.484Z,3492
2017-06-13T11:14:11.764Z,2936
2017-06-13T11:15:22.045Z,2668
2017-06-13T11:16:32.332Z,2556
2017-06-13T11:17:42.305Z,3328
2017-06-13T11:18:52.593Z,2872
2017-06-13T11:20:02.887Z,3284
2017-06-13T11:21:13.197Z,3000
2017-06-13T11:22:23.539Z,3176
2017-06-13T11:23:33.825Z,2816
2017-06-13T11:24:43.835Z,2676
2017-06-13T11:25:53.816Z,2280
2017-06-13T11:27:03.794Z,1860
2017-06-13T11:28:13.161Z,1920
2017-06-13T11:29:23.158Z,2184
2017-06-13T11:30:33.688Z,2408
2017-06-13T11:31:43.669Z,2448
2017-06-13T11:32:53.971Z,2312
2017-06-13T11:34:04.260Z,1848
2017-06-13T11:35:14.257Z,1584
2017-06-13T11:36:24.554Z,1508
2017-06-13T11:37:34.898Z,1356
2017-06-13T11:38:45.199Z,1424
2017-06-13T11:39:55.506Z,1796
2017-06-13T11:41:05.828Z,2240
2017-06-13T11:42:16.137Z,2804
2017-06-13T11:43:26.422Z,3528
2017-06-13T11:44:36.701Z,4192
2017-06-13T11:45:46.672Z,4760
2017-06-13T11:46:56.655Z,4756
2017-06-13T11:48:06.334Z,5064
2017-06-13T11:49:16.639Z,5068
2017-06-13T11:50:26.856Z,5160
2017-06-13T11:51:36.838Z,5024
2017-06-13T11:52:46.831Z,4892
2017-06-13T11:53:57.115Z,4548
2017-06-13T11:55:07.104Z,3700
2017-06-13T11:56:17.434Z,4060
2017-06-13T11:57:27.441Z,4128
2017-06-13T11:58:37.140Z,4192
2017-06-13T11:59:47.446Z,4276
2017-06-13T12:00:57.422Z,4372
2017-06-13T12:02:07.408Z,3452
2017-06-13T12:03:17.705Z,2504
2017-06-13T12:04:28.016Z,2356
2017-06-13T12:05:38.319Z,2028
2017-06-13T12:06:48.298Z,1792
2017-06-13T12:07:58.595Z,1692
2017-06-13T12:09:08.575Z,1380
2017-06-13T12:10:18.581Z,1156
2017-06-13T12:11:28.241Z,764
2017-06-13T12:12:38.225Z,624
2017-06-13T12:13:48.514Z,1052
2017-06-13T12:14:58.495Z,1860
2017-06-13T12:16:08.793Z,2380
2017-06-13T12:17:18.772Z,2572
2017-06-13T12:18:29.056Z,2664
2017-06-13T12:19:39.334Z,3056
2017-06-13T12:20:49.640Z,2864
2017-06-13T12:21:59.919Z,2672
2017-06-13T12:23:10.214Z,2664
2017-06-13T12:24:20.509Z,2784
2017-06-13T12:25:30.765Z,2796
2017-06-13T12:26:40.757Z,2488
2017-06-13T12:27:51.058Z,2084
2017-06-13T12:29:01.039Z,1724
2017-06-13T12:30:11.328Z,1436
2017-06-13T12:31:21.621Z,1216
2017-06-13T12:32:31.903Z,1152
2017-06-13T12:33:42.219Z,1028
2017-06-13T12:34:52.511Z,884
2017-06-13T12:36:02.803Z,760
2017-06-13T12:37:12.783Z,704
2017-06-13T12:38:22.757Z,648
2017-06-13T12:39:33.052Z,636
2017-06-13T12:40:42.740Z,692
2017-06-13T12:41:52.738Z,872
2017-06-13T12:43:03.021Z,1012
2017-06-13T12:44:13.313Z,1132
2017-06-13T12:45:23.654Z,1376
2017-06-13T12:46:33.940Z,1364
2017-06-13T12:47:43.915Z,1448
2017-06-13T12:48:54.240Z,1732
2017-06-13T12:50:04.535Z,2272
2017-06-13T12:51:14.831Z,2944
2017-06-13T12:52:25.118Z,3532
2017-06-13T12:53:35.463Z,3852
2017-06-13T12:54:45.443Z,4016
2017-06-13T12:55:55.752Z,4212
2017-06-13T12:57:06.068Z,4388
2017-06-13T12:58:16.350Z,4348
2017-06-13T12:59:26.636Z,4016
2017-06-13T13:00:36.922Z,3768
2017-06-13T13:01:47.216Z,4036
2017-06-13T13:02:57.208Z,4164
2017-06-13T13:04:07.486Z,4032
2017-06-13T13:05:17.771Z,3864
2017-06-13T13:06:27.770Z,3688
2017-06-13T13:07:37.851Z,3724
2017-06-13T13:08:48.135Z,3572
2017-06-13T13:09:58.451Z,3444
2017-06-13T13:11:08.737Z,3364
2017-06-13T13:12:19.014Z,3632
2017-06-13T13:13:29.300Z,4596
2017-06-13T13:14:39.575Z,4836
2017-06-13T13:15:49.562Z,4600
2017-06-13T13:16:59.844Z,4080
2017-06-13T13:18:10.124Z,3356
2017-06-13T13:19:20.407Z,2424
2017-06-13T13:20:30.710Z,1660
2017-06-13T13:21:40.105Z,1316
2017-06-13T13:22:50.105Z,1204
2017-06-13T13:24:00.402Z,1096
2017-06-13T13:25:10.698Z,856
2017-06-13T13:26:21.012Z,852
2017-06-13T13:27:31.305Z,1104
2017-06-13T13:28:41.585Z,1528
2017-06-13T13:29:51.878Z,1976
2017-06-13T13:31:01.858Z,2588
2017-06-13T13:32:11.843Z,3116
2017-06-13T13:33:22.135Z,3264
2017-06-13T13:34:32.150Z,3520
2017-06-13T13:35:42.447Z,3844
2017-06-13T13:36:52.748Z,3708
2017-06-13T13:38:02.713Z,3632
2017-06-13T13:39:13.004Z,3720
2017-06-13T13:40:23.301Z,3632
2017-06-13T13:41:33.590Z,3524
2017-06-13T13:42:43.871Z,3304
2017-06-13T13:43:53.863Z,2832
2017-06-13T13:45:04.165Z,2624
2017-06-13T13:46:14.451Z,2664
2017-06-13T13:47:24.748Z,2748
2017-06-13T13:48:35.051Z,2900
2017-06-13T13:49:45.334Z,2984
2017-06-13T13:50:55.627Z,2840
2017-06-13T13:52:05.607Z,2544
2017-06-13T13:53:15.887Z,2288
2017-06-13T13:54:26.192Z,2056
2017-06-13T13:55:36.477Z,2316
2017-06-13T13:56:46.455Z,2568
2017-06-13T13:57:56.421Z,2092
2017-06-13T13:59:06.718Z,1928
2017-06-13T14:00:17.011Z,1932
2017-06-13T14:01:26.990Z,1888
2017-06-13T14:02:37.279Z,2156
2017-06-13T14:03:47.573Z,2732
2017-06-13T14:04:57.858Z,2772
2017-06-13T14:06:08.143Z,3020
2017-06-13T14:07:18.119Z,3256
2017-06-13T14:08:28.420Z,2996
2017-06-13T14:09:38.400Z,2548
2017-06-13T14:10:48.371Z,2096
2017-06-13T14:11:58.349Z,2188
2017-06-13T14:13:08.321Z,2032
2017-06-13T14:14:18.336Z,1588
2017-06-13T14:15:28.633Z,1172
2017-06-13T14:16:38.917Z,968
2017-06-13T14:17:49.200Z,1076
2017-06-13T14:18:59.493Z,1232
2017-06-13T14:20:09.775Z,1312
2017-06-13T14:21:20.063Z,1120
2017-06-13T14:22:30.368Z,848
2017-06-13T14:23:40.696Z,628
2017-06-13T14:24:51.004Z,496
2017-06-13T14:26:01.287Z,456
2017-06-13T14:27:11.571Z,396
2017-06-13T14:28:21.552Z,336
2017-06-13T14:29:31.853Z,332
2017-06-13T14:30:42.164Z,428
2017-06-13T14:31:51.843Z,612
2017-06-13T14:33:02.186Z,800
2017-06-13T14:34:12.472Z,872
2017-06-13T14:35:22.771Z,980
2017-06-13T14:36:33.054Z,996
2017-06-13T14:37:43.338Z,736
2017-06-13T14:38:53.337Z,580
2017-06-13T14:40:03.627Z,484
2017-06-13T14:41:13.931Z,440
2017-06-13T14:42:24.235Z,436
2017-06-13T14:43:34.520Z,520
2017-06-13T14:44:44.807Z,720
2017-06-13T14:45:55.098Z,904
2017-06-13T14:47:05.372Z,1056
2017-06-13T14:48:15.669Z,1220
2017-06-13T14:49:25.967Z,1364
2017-06-13T14:50:36.242Z,1624
2017-06-13T14:51:46.527Z,1976
2017-06-13T14:52:56.814Z,2272
2017-06-13T14:54:07.104Z,2548
2017-06-13T14:55:17.107Z,2836
2017-06-13T14:56:26.767Z,3052
2017-06-13T14:57:37.056Z,3164
2017-06-13T14:58:47.034Z,3424
2017-06-13T14:59:57.006Z,3572
2017-06-13T15:01:07.295Z,3512
2017-06-13T15:02:17.586Z,3032
2017-06-13T15:03:27.870Z,2440
2017-06-13T15:04:37.543Z,2112
2017-06-13T15:05:47.510Z,2020
2017-06-13T15:06:57.962Z,2020
2017-06-13T15:08:07.944Z,2032
2017-06-13T15:09:17.931Z,2060
2017-06-13T15:10:28.210Z,2068
2017-06-13T15:11:38.510Z,2116
2017-06-13T15:12:48.797Z,2140
2017-06-13T15:13:59.124Z,2124
2017-06-13T15:15:09.430Z,2152
2017-06-13T15:16:19.740Z,2200
2017-06-13T15:17:30.054Z,2172
2017-06-13T15:18:40.334Z,2172
2017-06-13T15:19:50.347Z,2236
2017-06-13T15:21:00.628Z,2324
2017-06-13T15:22:10.904Z,2396
2017-06-13T15:23:21.187Z,2464
2017-06-13T15:24:31.469Z,2596
2017-06-13T15:25:41.776Z,2504
2017-06-13T15:26:51.752Z,2604
2017-06-13T15:28:02.048Z,2712
2017-06-13T15:29:12.335Z,2772
2017-06-13T15:30:22.003Z,2908
2017-06-13T15:31:32.284Z,3132
2017-06-13T15:32:42.263Z,3184
2017-06-13T15:33:52.255Z,2988
2017-06-13T15:35:02.226Z,2716
2017-06-13T15:36:12.509Z,2540
2017-06-13T15:37:22.175Z,2424
2017-06-13T15:38:32.456Z,2396
2017-06-13T15:39:42.733Z,2592
2017-06-13T15:40:52.716Z,2736
2017-06-13T15:42:02.703Z,2684
2017-06-13T15:43:12.700Z,2880
2017-06-13T15:44:23.006Z,2876
2017-06-13T15:45:32.973Z,2852
2017-06-13T15:46:43.271Z,2896
2017-06-13T15:47:53.554Z,2948
2017-06-13T15:49:03.551Z,2888
2017-06-13T15:50:13.845Z,2664
2017-06-13T15:51:24.147Z,2340
2017-06-13T15:52:34.442Z,2720
2017-06-13T15:53:44.732Z,2784
2017-06-13T15:54:55.031Z,2668
2017-06-13T15:56:05.312Z,2372
2017-06-13T15:57:15.308Z,2024